Time;durP1;ratioP1;P1;durP2;ratioP2;P2;SDS_P1;SDS_P2;PMS_P1;PMS_P2;Temp;Humidity;BMP_temperature;BMP_pressure;BME280_temperature;BME280_humidity;BME280_pressure;Samples;Min_cycle;Max_cycle;Signal;HPM_P1;HPM_P2
2022/08/31 00:06:07;;;;;;;0.55;0.55;;;;;;;;;;4999462;28;20672;-89
2022/08/31 00:08:33;;;;;;;0.98;0.68;;;;;;;;;;4996788;28;20185;-90
2022/08/31 00:10:59;;;;;;;0.40;0.40;;;17.00;99.90;;;;;;4996001;28;20191;-90
2022/08/31 00:13:26;;;;;;;0.85;0.40;;;16.80;99.90;;;;;;4980480;28;20196;-90
2022/08/31 00:15:52;;;;;;;0.55;0.55;;;17.10;99.90;;;;;;4996023;28;20543;-90
2022/08/31 00:18:18;;;;;;;0.65;0.65;;;17.50;99.90;;;;;;5013025;28;20189;-90
2022/08/31 00:20:45;;;;;;;1.35;1.00;;;17.10;99.90;;;;;;5013726;28;20184;-90
2022/08/31 00:23:13;;;;;;;0.52;0.45;;;17.10;99.90;;;;;;5013401;28;20250;-89
2022/08/31 00:25:42;;;;;;;0.40;0.40;;;17.20;99.90;;;;;;4999103;28;20181;-88
2022/08/31 00:28:09;;;;;;;0.70;0.45;;;17.10;99.90;;;;;;5016308;28;20264;-89
2022/08/31 00:30:35;;;;;;;0.68;0.68;;;17.10;99.90;;;;;;5017496;28;20209;-88
2022/08/31 00:33:01;;;;;;;1.00;0.50;;;16.90;99.90;;;;;;5016821;28;20211;-88
2022/08/31 00:35:28;;;;;;;0.60;0.60;;;17.10;99.90;;;;;;5017065;28;20180;-89
2022/08/31 00:37:54;;;;;;;0.43;0.43;;;17.00;99.90;;;;;;5016537;28;20180;-89
2022/08/31 00:40:20;;;;;;;0.75;0.60;;;;;;;;;;4999331;28;20181;-88
2022/08/31 00:42:46;;;;;;;1.92;0.70;;;17.10;99.90;;;;;;4999256;28;20243;-89
2022/08/31 00:45:12;;;;;;;0.68;0.68;;;;;;;;;;4999624;28;20245;-89
2022/08/31 00:47:38;;;;;;;0.40;0.38;;;17.50;99.90;;;;;;5017346;28;20181;-89
2022/08/31 00:50:07;;;;;;;0.93;0.85;;;17.20;99.90;;;;;;4999012;28;20185;-88
2022/08/31 00:52:38;;;;;;;1.50;1.38;;;17.00;99.90;;;;;;5016500;28;20181;-88
2022/08/31 00:55:36;;;;;;;0.40;0.40;;;17.00;99.90;;;;;;5016567;28;20173;-89
2022/08/31 00:58:06;;;;;;;0.65;0.65;;;17.00;99.90;;;;;;4976315;28;20185;-88
2022/08/31 01:00:31;;;;;;;0.80;0.70;;;17.00;99.90;;;;;;5016403;28;20173;-89
2022/08/31 01:03:00;;;;;;;3.65;1.17;;;16.90;99.90;;;;;;4982381;28;20235;-88
2022/08/31 01:05:27;;;;;;;0.43;0.40;;;16.70;99.90;;;;;;4998916;28;20177;-88
2022/08/31 01:07:53;;;;;;;1.23;0.50;;;16.40;99.90;;;;;;5015569;28;20213;-89
2022/08/31 01:10:22;;;;;;;0.63;0.63;;;16.60;99.90;;;;;;4982613;28;20177;-89
2022/08/31 01:12:51;;;;;;;2.00;0.75;;;16.40;99.90;;;;;;5015491;28;20248;-88
2022/08/31 01:15:17;;;;;;;0.70;0.60;;;;;;;;;;4998828;28;20594;-88
2022/08/31 01:17:47;;;;;;;0.43;0.43;;;16.90;99.90;;;;;;4981665;28;20293;-88
2022/08/31 01:20:35;;;;;;;1.77;0.60;;;16.70;99.90;;;;;;5015847;28;20185;-89
2022/08/31 01:23:14;;;;;;;0.90;0.60;;;17.00;99.90;;;;;;4998167;28;20205;-89
2022/08/31 01:25:42;;;;;;;0.60;0.60;;;16.60;99.90;;;;;;5017031;28;20177;-88
2022/08/31 01:28:09;;;;;;;2.00;0.55;;;;;;;;;;4997827;28;20263;-88
2022/08/31 01:30:36;;;;;;;0.68;0.60;;;17.20;99.90;;;;;;4999901;28;20208;-90
2022/08/31 01:33:02;;;;;;;0.52;0.35;;;16.60;99.90;;;;;;4998109;28;20195;-88
2022/08/31 01:35:28;;;;;;;1.38;0.93;;;;;;;;;;5016044;28;20713;-88
2022/08/31 01:37:55;;;;;;;0.40;0.40;;;16.90;99.90;;;;;;5016268;28;20181;-89
2022/08/31 01:40:25;;;;;;;3.75;1.20;;;17.30;99.90;;;;;;5017641;28;20169;-90
2022/08/31 01:42:50;;;;;;;0.57;0.50;;;16.70;99.90;;;;;;5015638;28;20693;-89
2022/08/31 01:45:16;;;;;;;0.88;0.88;;;;;;;;;;4999030;28;20181;-89
2022/08/31 01:47:42;;;;;;;0.70;0.70;;;;;;;;;;4985022;28;20212;-90
2022/08/31 01:50:08;;;;;;;1.23;0.60;;;;;;;;;;5001931;28;20264;-89
2022/08/31 01:52:36;;;;;;;0.60;0.60;;;17.00;99.90;;;;;;5032835;28;20248;-90
2022/08/31 01:55:04;;;;;;;0.52;0.45;;;17.00;99.90;;;;;;5022408;28;20212;-89
2022/08/31 01:57:30;;;;;;;0.60;0.60;;;;;;;;;;5024159;28;20669;-89
2022/08/31 01:59:59;;;;;;;0.40;0.40;;;16.70;99.90;;;;;;4998302;28;20189;-91
2022/08/31 02:02:25;;;;;;;0.52;0.52;;;16.80;99.90;;;;;;5015572;28;20205;-91
2022/08/31 02:04:50;;;;;;;0.55;0.47;;;16.60;99.90;;;;;;5015216;28;20232;-91
2022/08/31 02:07:16;;;;;;;0.65;0.52;;;;;;;;;;4997685;28;20177;-91
2022/08/31 02:09:42;;;;;;;0.85;0.45;;;16.20;99.90;;;;;;5015483;28;20227;-91
2022/08/31 02:12:08;;;;;;;0.95;0.43;;;;;;;;;;5015259;28;20582;-90
2022/08/31 02:14:34;;;;;;;1.13;0.70;;;17.20;99.90;;;;;;5015399;28;20196;-90
2022/08/31 02:17:00;;;;;;;0.35;0.35;;;;;;;;;;5014523;28;20629;-91
2022/08/31 02:19:25;;;;;;;0.55;0.50;;;16.60;99.90;;;;;;4997753;28;20220;-90
2022/08/31 02:21:51;;;;;;;1.42;0.70;;;;;;;;;;4981145;28;20255;-90
2022/08/31 02:24:17;;;;;;;0.50;0.50;;;;;;;;;;4980355;28;20224;-90
2022/08/31 02:26:43;;;;;;;1.15;0.90;;;16.60;99.90;;;;;;5015221;28;20185;-90
2022/08/31 02:29:09;;;;;;;0.45;0.45;;;;;;;;;;4997035;28;20557;-90
2022/08/31 02:31:35;;;;;;;2.10;0.60;;;16.70;99.90;;;;;;4997181;28;20185;-90
2022/08/31 02:34:01;;;;;;;1.23;0.68;;;16.40;99.90;;;;;;5014613;28;20185;-91
2022/08/31 02:36:27;;;;;;;0.40;0.40;;;;;;;;;;5014491;28;20169;-90
2022/08/31 02:38:53;;;;;;;1.77;1.13;;;;;;;;;;4980517;28;20545;-90
2022/08/31 02:41:19;;;;;;;0.40;0.40;;;16.80;99.90;;;;;;5014691;28;20185;-91
2022/08/31 02:43:45;;;;;;;0.47;0.47;;;16.30;99.90;;;;;;4981114;28;20216;-90
2022/08/31 02:46:11;;;;;;;0.38;0.38;;;;;;;;;;5014020;28;20181;-90
2022/08/31 02:48:37;;;;;;;0.90;0.82;;;;;;;;;;4979827;28;20604;-90
2022/08/31 02:51:05;;;;;;;0.60;0.60;;;16.30;99.90;;;;;;5014625;28;20181;-90
2022/08/31 02:53:31;;;;;;;2.15;1.20;;;16.00;99.90;;;;;;5014318;28;20178;-89
2022/08/31 02:55:57;;;;;;;0.80;0.70;;;16.30;99.90;;;;;;4997530;28;20173;-90
2022/08/31 02:58:23;;;;;;;0.60;0.60;;;;;;;;;;5013935;28;20181;-91
2022/08/31 03:00:49;;;;;;;3.80;1.55;;;;;;;;;;5014586;28;20658;-90
2022/08/31 03:03:15;;;;;;;7.80;1.30;;;16.20;99.90;;;;;;5014381;28;20209;-91
2022/08/31 03:05:41;;;;;;;0.63;0.55;;;16.60;99.90;;;;;;5014833;28;20627;-90
2022/08/31 03:08:07;;;;;;;0.50;0.50;;;;;;;;;;4997104;28;20179;-90
2022/08/31 03:10:33;;;;;;;2.17;0.75;;;16.50;99.90;;;;;;4996464;28;20196;-90
2022/08/31 03:12:59;;;;;;;2.10;0.88;;;16.10;99.90;;;;;;5014007;28;20200;-89
2022/08/31 03:15:25;;;;;;;0.40;0.40;;;;;;;;;;5013813;28;20698;-89
2022/08/31 03:17:51;;;;;;;0.40;0.40;;;16.30;99.90;;;;;;5013313;28;20646;-90
2022/08/31 03:20:18;;;;;;;0.50;0.50;;;16.10;99.90;;;;;;5014103;28;20208;-89
2022/08/31 03:22:44;;;;;;;0.40;0.40;;;;;;;;;;5013836;28;20228;-90
2022/08/31 03:25:10;;;;;;;0.30;0.30;;;;;;;;;;5013799;28;20665;-89
2022/08/31 03:27:37;;;;;;;0.52;0.52;;;16.10;99.90;;;;;;5013917;28;20216;-90
2022/08/31 03:30:09;;;;;;;0.73;0.73;;;15.60;99.90;;;;;;4995964;28;20673;-89
2022/08/31 03:32:35;;;;;;;0.63;0.60;;;16.00;99.90;;;;;;4993047;28;20277;-91
2022/08/31 03:35:01;;;;;;;0.57;0.57;;;16.20;99.90;;;;;;4992616;28;20223;-89
2022/08/31 03:37:27;;;;;;;1.38;0.50;;;15.80;99.90;;;;;;4985080;28;20190;-90
2022/08/31 03:39:53;;;;;;;0.40;0.40;;;;;;;;;;5006407;28;20247;-87
2022/08/31 03:42:19;;;;;;;0.40;0.40;;;;;;;;;;5004331;28;20194;-88
2022/08/31 03:44:46;;;;;;;0.50;0.50;;;15.80;99.90;;;;;;5011884;28;20208;-88
2022/08/31 03:47:12;;;;;;;0.50;0.40;;;;;;;;;;4995135;28;20210;-89
2022/08/31 03:49:38;;;;;;;0.73;0.60;;;16.10;99.90;;;;;;4993604;28;20264;-90
2022/08/31 03:52:04;;;;;;;0.98;0.60;;;;;;;;;;4985604;28;20275;-88
2022/08/31 03:54:30;;;;;;;0.50;0.50;;;16.20;99.90;;;;;;4990269;28;20646;-88
2022/08/31 03:56:56;;;;;;;0.45;0.45;;;;;;;;;;4991191;28;20190;-89
2022/08/31 03:59:22;;;;;;;1.85;0.68;;;15.90;99.90;;;;;;4992769;28;20552;-89
2022/08/31 04:01:48;;;;;;;0.30;0.30;;;;;;;;;;4992754;28;20186;-90
2022/08/31 04:04:14;;;;;;;0.50;0.50;;;16.00;99.90;;;;;;5005480;28;20244;-89
2022/08/31 04:06:40;;;;;;;0.28;0.28;;;16.20;99.90;;;;;;5000909;28;20193;-90
2022/08/31 04:09:07;;;;;;;0.47;0.47;;;;;;;;;;5014335;28;20645;-90
2022/08/31 04:11:33;;;;;;;2.67;0.73;;;;;;;;;;5013740;28;20181;-89
2022/08/31 04:13:58;;;;;;;0.55;0.40;;;16.20;99.90;;;;;;5013252;28;20189;-90
2022/08/31 04:16:25;;;;;;;1.20;0.40;;;;;;;;;;5013374;28;20196;-88
2022/08/31 04:18:51;;;;;;;0.40;0.40;;;15.70;99.90;;;;;;5008317;28;20193;-89
2022/08/31 04:21:24;;;;;;;0.28;0.28;;;15.90;99.90;;;;;;5015708;28;20189;-89
2022/08/31 04:23:50;;;;;;;1.75;0.85;;;15.90;99.90;;;;;;5012205;28;20235;-90
2022/08/31 04:26:25;;;;;;;0.68;0.52;;;15.70;99.90;;;;;;5004094;28;20213;-91
2022/08/31 04:28:51;;;;;;;0.40;0.40;;;;;;;;;;4997066;28;20268;-91
2022/08/31 04:31:19;;;;;;;1.23;0.68;;;15.40;99.90;;;;;;4994569;28;20235;-90
2022/08/31 04:33:45;;;;;;;0.40;0.40;;;15.70;99.90;;;;;;5014594;28;20219;-90
2022/08/31 04:36:14;;;;;;;0.40;0.40;;;15.80;99.90;;;;;;5026671;28;20189;-90
2022/08/31 04:38:43;;;;;;;0.25;0.25;;;15.40;99.90;;;;;;5032624;28;20165;-91
2022/08/31 04:41:11;;;;;;;0.47;0.47;;;15.90;99.90;;;;;;5017960;28;20181;-91
2022/08/31 04:43:38;;;;;;;0.63;0.45;;;15.60;99.90;;;;;;5018990;28;20204;-87
2022/08/31 04:46:06;;;;;;;0.85;0.70;;;15.70;99.90;;;;;;5034608;28;20186;-92
2022/08/31 04:48:32;;;;;;;0.43;0.43;;;15.90;99.90;;;;;;5028782;28;20185;-92
2022/08/31 04:51:11;;;;;;;0.30;0.30;;;15.90;99.90;;;;;;5051247;28;20180;-91
2022/08/31 04:53:37;;;;;;;3.08;0.73;;;;;;;;;;5018527;28;20213;-91
2022/08/31 04:56:13;;;;;;;0.30;0.30;;;15.80;99.90;;;;;;5025880;28;20265;-89
2022/08/31 04:58:43;;;;;;;0.30;0.30;;;16.10;99.90;;;;;;5048417;28;20180;-91
2022/08/31 05:01:16;;;;;;;1.20;0.65;;;15.90;99.90;;;;;;5028023;28;20181;-89
2022/08/31 05:03:42;;;;;;;0.32;0.30;;;16.30;99.90;;;;;;5033591;28;20300;-93
2022/08/31 05:06:13;;;;;;;0.70;0.52;;;;;;;;;;5057091;28;20169;-90
2022/08/31 05:08:40;;;;;;;0.20;0.20;;;;;;;;;;5057168;28;20184;-88
2022/08/31 05:11:09;;;;;;;0.32;0.32;;;;;;;;;;5051185;28;20189;-92
2022/08/31 05:13:36;;;;;;;0.35;0.35;;;;;;;;;;5039464;28;20169;-88
2022/08/31 05:16:03;;;;;;;0.32;0.32;;;;;;;;;;5049473;28;20276;-91
2022/08/31 05:18:29;;;;;;;1.52;0.85;;;;;;;;;;5044320;28;20176;-91
2022/08/31 05:20:55;;;;;;;3.58;1.23;;;;;;;;;;5048682;28;20220;-90
2022/08/31 05:23:21;;;;;;;0.47;0.47;;;;;;;;;;5041174;28;20204;-92
2022/08/31 05:25:47;;;;;;;0.57;0.57;;;;;;;;;;5041420;28;20219;-90
2022/08/31 05:28:14;;;;;;;1.02;0.80;;;;;;;;;;5043580;28;20184;-88
2022/08/31 05:30:44;;;;;;;0.50;0.50;;;;;;;;;;5042678;28;20212;-88
2022/08/31 05:33:10;;;;;;;1.10;0.82;;;;;;;;;;5060567;28;20216;-87
2022/08/31 05:35:36;;;;;;;0.50;0.50;;;15.70;99.90;;;;;;5042956;28;20172;-89
2022/08/31 05:38:02;;;;;;;0.47;0.47;;;;;;;;;;5018758;28;20189;-92
2022/08/31 05:40:29;;;;;;;0.20;0.20;;;;;;;;;;5030112;28;20187;-90
2022/08/31 05:42:58;;;;;;;0.75;0.50;;;;;;;;;;5027186;28;20204;-88
2022/08/31 05:45:24;;;;;;;0.30;0.30;;;;;;;;;;5032955;28;20192;-88
2022/08/31 05:47:50;;;;;;;0.40;0.40;;;;;;;;;;5050193;28;20259;-87
2022/08/31 05:50:17;;;;;;;0.47;0.47;;;;;;;;;;5034509;28;20196;-89
2022/08/31 05:52:44;;;;;;;0.73;0.60;;;15.40;99.90;;;;;;5054131;28;20603;-89
2022/08/31 05:55:11;;;;;;;1.20;1.05;;;15.70;99.90;;;;;;5037844;28;20185;-90
2022/08/31 05:57:39;;;;;;;0.35;0.35;;;;;;;;;;5040156;28;20248;-90
2022/08/31 06:00:07;;;;;;;0.35;0.35;;;16.10;99.90;;;;;;5045604;28;20168;-88
2022/08/31 06:02:34;;;;;;;0.30;0.30;;;;;;;;;;5043117;28;20204;-88
2022/08/31 06:05:00;;;;;;;2.47;0.43;;;16.50;99.90;;;;;;5044163;28;20189;-89
2022/08/31 06:07:26;;;;;;;0.30;0.30;;;;;;;;;;5034277;28;20189;-89
2022/08/31 06:09:52;;;;;;;0.60;0.60;;;16.00;99.90;;;;;;5026076;28;20197;-88
2022/08/31 06:12:19;;;;;;;1.30;1.20;;;;;;;;;;5009055;28;20185;-89
2022/08/31 06:14:45;;;;;;;0.65;0.65;;;;;;;;;;5014824;28;20173;-87
2022/08/31 06:17:11;;;;;;;0.57;0.55;;;16.20;99.90;;;;;;4994582;28;20185;-88
2022/08/31 06:19:38;;;;;;;0.75;0.50;;;16.90;99.90;;;;;;5023836;28;20181;-89
2022/08/31 06:22:04;;;;;;;0.40;0.40;;;16.70;99.90;;;;;;5009630;28;20636;-88
2022/08/31 06:24:30;;;;;;;1.20;0.80;;;;;;;;;;5002648;28;20241;-87
2022/08/31 06:26:57;;;;;;;0.60;0.40;;;16.70;99.90;;;;;;4995546;28;20192;-90
2022/08/31 06:29:24;;;;;;;0.35;0.35;;;;;;;;;;4997063;28;20241;-90
2022/08/31 06:31:50;;;;;;;0.32;0.32;;;16.50;99.90;;;;;;4996756;28;20795;-89
2022/08/31 06:34:17;;;;;;;0.73;0.50;;;17.00;99.90;;;;;;4984314;28;20194;-90
2022/08/31 06:36:43;;;;;;;0.50;0.50;;;;;;;;;;5003950;28;20192;-89
2022/08/31 06:39:11;;;;;;;0.45;0.40;;;17.00;99.90;;;;;;5019808;28;20177;-92
2022/08/31 06:41:38;;;;;;;0.30;0.30;;;16.90;99.90;;;;;;5002739;28;20184;-89
2022/08/31 06:44:06;;;;;;;0.45;0.45;;;16.60;99.90;;;;;;5020848;28;20265;-87
2022/08/31 06:46:35;;;;;;;0.30;0.30;;;17.10;99.90;;;;;;5016731;28;20665;-86
2022/08/31 06:49:01;;;;;;;0.70;0.40;;;;;;;;;;5015726;28;20181;-89
2022/08/31 06:51:27;;;;;;;0.30;0.30;;;17.20;99.90;;;;;;5001053;28;20173;-86
2022/08/31 06:53:53;;;;;;;0.45;0.40;;;17.50;99.90;;;;;;5017779;28;20523;-89
2022/08/31 06:56:21;;;;;;;0.30;0.30;;;17.10;99.90;;;;;;5016118;28;20658;-89
2022/08/31 06:58:49;;;;;;;0.60;0.60;;;17.20;99.90;;;;;;5014237;28;20177;-88
2022/08/31 07:01:18;;;;;;;0.85;0.32;;;17.30;99.90;;;;;;4996380;28;20189;-91
2022/08/31 07:03:47;;;;;;;1.63;0.60;;;17.40;99.90;;;;;;5013670;28;20197;-88
2022/08/31 07:06:17;;;;;;;0.90;0.40;;;17.60;99.90;;;;;;5000001;28;20725;-89
2022/08/31 07:08:44;;;;;;;0.30;0.30;;;17.40;99.90;;;;;;5017977;28;20182;-90
2022/08/31 07:11:16;;;;;;;1.15;0.40;;;17.60;99.90;;;;;;5015962;28;20180;-90
2022/08/31 07:13:42;;;;;;;0.50;0.50;;;18.00;99.90;;;;;;4999343;28;20185;-89
2022/08/31 07:16:11;;;;;;;0.10;0.10;;;17.60;99.90;;;;;;4997052;28;20176;-88
2022/08/31 07:18:37;;;;;;;0.30;0.30;;;17.50;99.90;;;;;;4997562;28;20647;-87
2022/08/31 07:21:31;;;;;;;0.17;0.17;;;17.80;99.90;;;;;;4997818;28;20644;-86
2022/08/31 07:23:58;;;;;;;1.63;0.80;;;17.70;99.90;;;;;;4993707;28;20251;-89
2022/08/31 07:26:32;;;;;;;0.93;0.50;;;17.90;99.90;;;;;;5013175;28;20207;-89
2022/08/31 07:28:58;;;;;;;0.35;0.32;;;;;;;;;;5014531;28;20229;-88
2022/08/31 07:31:36;;;;;;;1.65;0.82;;;17.50;99.90;;;;;;5014658;28;20181;-89
2022/08/31 07:34:06;;;;;;;0.68;0.60;;;17.80;99.90;;;;;;4997512;28;20191;-88
2022/08/31 07:42:07;;;;;;;1.42;0.93;;;18.00;99.90;;;;;;4998667;28;20188;-89
2022/08/31 07:42:10;;;;;;;1.27;0.75;;;18.60;99.90;;;;;;5012453;28;20200;-90
2022/08/31 07:44:38;;;;;;;0.60;0.50;;;17.90;99.90;;;;;;4997740;28;20189;-90
2022/08/31 07:47:07;;;;;;;3.92;0.40;;;;;;;;;;5014479;28;20660;-88
2022/08/31 07:49:34;;;;;;;3.13;0.68;;;;;;;;;;4997919;28;20185;-90
2022/08/31 07:52:00;;;;;;;0.82;0.60;;;;;;;;;;5014006;28;20188;-90
2022/08/31 07:54:27;;;;;;;0.98;0.68;;;17.90;99.90;;;;;;5014132;28;20193;-89
2022/08/31 07:57:02;;;;;;;1.10;0.95;;;17.90;99.90;;;;;;4978603;28;20177;-89
2022/08/31 07:59:29;;;;;;;0.50;0.50;;;18.00;99.90;;;;;;5013285;28;20181;-88
2022/08/31 08:01:55;;;;;;;0.60;0.47;;;;;;;;;;5012104;28;20165;-87
2022/08/31 08:04:24;;;;;;;0.98;0.45;;;;;;;;;;5011373;28;20266;-87
2022/08/31 08:06:59;;;;;;;1.58;0.68;;;18.10;99.90;;;;;;4995150;28;20192;-88
2022/08/31 08:09:27;;;;;;;0.73;0.60;;;18.10;99.90;;;;;;4995266;28;20212;-87
2022/08/31 08:11:56;;;;;;;1.75;0.50;;;18.40;99.90;;;;;;5011734;28;20169;-87
2022/08/31 08:14:22;;;;;;;0.32;0.32;;;18.80;99.90;;;;;;4995062;28;20279;-88
2022/08/31 08:16:48;;;;;;;0.52;0.50;;;;;;;;;;4994007;28;20272;-87
2022/08/31 08:19:14;;;;;;;0.50;0.40;;;;;;;;;;4994636;28;20285;-88
2022/08/31 08:21:42;;;;;;;0.30;0.30;;;;;;;;;;5012158;28;20173;-86
2022/08/31 08:24:09;;;;;;;0.30;0.30;;;18.80;99.90;;;;;;5002495;28;20298;-89
2022/08/31 08:26:35;;;;;;;2.55;0.82;;;;;;;;;;5011785;28;20517;-88
2022/08/31 08:29:03;;;;;;;0.50;0.50;;;;;;;;;;5011220;28;20304;-87
2022/08/31 08:31:28;;;;;;;0.60;0.60;;;18.60;99.90;;;;;;4994470;28;20184;-87
2022/08/31 08:33:54;;;;;;;0.45;0.45;;;;;;;;;;5011280;28;20181;-87
2022/08/31 08:36:20;;;;;;;0.77;0.50;;;;;;;;;;4977847;28;20638;-88
2022/08/31 08:38:49;;;;;;;0.43;0.43;;;19.40;99.90;;;;;;4978605;28;20196;-87
2022/08/31 08:41:19;;;;;;;1.10;1.08;;;19.40;99.90;;;;;;4994272;28;20612;-86
2022/08/31 08:43:57;;;;;;;0.40;0.40;;;19.10;99.90;;;;;;5011147;28;20197;-87
2022/08/31 08:46:47;;;;;;;1.00;0.57;;;19.50;99.90;;;;;;5015125;28;20177;-87
2022/08/31 08:49:27;;;;;;;0.65;0.50;;;18.90;99.90;;;;;;4991108;28;20212;-87
2022/08/31 08:51:58;;;;;;;0.40;0.40;;;19.80;99.90;;;;;;5016138;28;20177;-87
2022/08/31 08:54:39;;;;;;;1.35;0.50;;;19.80;99.90;;;;;;4998560;28;20188;-87
2022/08/31 08:57:35;;;;;;;2.83;0.80;;;20.30;99.90;;;;;;5015897;28;20192;-88
2022/08/31 09:00:07;;;;;;;0.47;0.47;;;19.70;99.90;;;;;;5017244;28;20188;-87
2022/08/31 09:02:33;;;;;;;0.52;0.52;;;;;;;;;;5018772;28;20204;-86
2022/08/31 09:04:59;;;;;;;0.50;0.50;;;;;;;;;;5017301;28;20188;-86
2022/08/31 09:07:49;;;;;;;0.40;0.40;;;19.60;99.90;;;;;;5036258;28;20176;-88
2022/08/31 09:10:37;;;;;;;1.05;0.63;;;19.00;99.90;;;;;;5036908;28;20157;-87
2022/08/31 09:13:31;;;;;;;0.40;0.40;;;18.70;99.90;;;;;;5025135;28;20183;-86
2022/08/31 09:16:27;;;;;;;0.38;0.38;;;19.10;99.90;;;;;;5059363;28;20184;-86
2022/08/31 09:18:59;;;;;;;0.40;0.40;;;19.70;99.90;;;;;;5044253;28;20177;-87
2022/08/31 09:21:29;;;;;;;0.40;0.40;;;19.60;99.90;;;;;;5038885;28;20173;-90
2022/08/31 09:24:05;;;;;;;1.23;0.60;;;19.90;99.90;;;;;;5036792;28;20212;-87
2022/08/31 09:26:45;;;;;;;0.40;0.40;;;19.90;99.90;;;;;;5036383;28;20176;-90
2022/08/31 09:29:23;;;;;;;0.40;0.30;;;19.90;99.90;;;;;;5018670;28;20583;-88
2022/08/31 09:31:59;;;;;;;0.20;0.20;;;20.00;99.90;;;;;;5016309;28;20528;-89
2022/08/31 09:34:31;;;;;;;0.55;0.40;;;19.90;99.90;;;;;;5022644;28;20251;-89
2022/08/31 09:37:15;;;;;;;0.90;0.60;;;;;;;;;;5025160;28;20169;-89
2022/08/31 09:39:41;;;;;;;0.47;0.47;;;;;;;;;;5003843;28;20589;-88
2022/08/31 09:42:27;;;;;;;1.58;0.70;;;19.70;99.90;;;;;;5007580;28;20183;-89
2022/08/31 09:44:54;;;;;;;0.75;0.50;;;20.20;99.90;;;;;;5022210;28;20239;-87
2022/08/31 09:47:47;;;;;;;0.50;0.50;;;20.00;99.90;;;;;;5025600;28;20253;-88
2022/08/31 09:50:43;;;;;;;0.82;0.38;;;19.40;99.90;;;;;;5024173;28;20560;-88
2022/08/31 09:56:12;;;;;;;0.30;0.30;;;20.20;99.90;;;;;;5024847;28;20188;-89
2022/08/31 09:58:39;;;;;;;0.43;0.43;;;;;;;;;;5027155;28;20181;-90
2022/08/31 10:01:13;;;;;;;0.30;0.30;;;20.40;91.90;;;;;;5023583;28;20526;-86
2022/08/31 10:03:44;;;;;;;0.55;0.38;;;20.40;93.60;;;;;;5008535;28;20220;-86
2022/08/31 10:06:36;;;;;;;0.82;0.50;;;20.80;99.90;;;;;;5022255;28;20196;-85
2022/08/31 10:09:10;;;;;;;0.98;0.43;;;20.40;99.90;;;;;;5018182;28;20220;-85
2022/08/31 10:11:38;;;;;;;0.45;0.35;;;20.80;92.80;;;;;;5018286;28;20215;-85
2022/08/31 10:14:21;;;;;;;0.25;0.25;;;20.90;91.50;;;;;;5006478;28;20200;-85
2022/08/31 10:16:52;;;;;;;0.50;0.30;;;20.90;90.60;;;;;;5022902;28;20173;-85
2022/08/31 10:19:29;;;;;;;0.20;0.20;;;21.20;90.30;;;;;;5034538;28;20698;-86
2022/08/31 10:22:24;;;;;;;1.30;0.38;;;21.00;92.20;;;;;;5027913;28;20255;-86
2022/08/31 10:25:03;;;;;;;0.40;0.40;;;20.70;99.90;;;;;;5003622;28;20665;-84
2022/08/31 10:27:37;;;;;;;0.30;0.30;;;20.80;91.10;;;;;;5028862;28;20180;-84
2022/08/31 10:30:18;;;;;;;1.08;0.30;;;21.00;97.50;;;;;;5046270;28;20235;-85
2022/08/31 10:32:48;;;;;;;0.40;0.40;;;20.90;90.30;;;;;;5017038;28;20768;-86
2022/08/31 10:35:47;;;;;;;1.90;0.95;;;21.20;99.90;;;;;;5043472;28;20183;-86
2022/08/31 10:38:42;;;;;;;0.60;0.60;;;20.90;99.90;;;;;;5040929;28;20233;-85
2022/08/31 10:41:16;;;;;;;1.73;0.45;;;20.80;90.20;;;;;;5041801;28;20265;-86
2022/08/31 10:43:45;;;;;;;0.47;0.47;;;20.50;89.10;;;;;;5028356;28;20212;-84
2022/08/31 10:46:12;;;;;;;0.50;0.35;;;20.20;90.00;;;;;;5044206;28;20249;-85
2022/08/31 10:48:42;;;;;;;0.50;0.50;;;;;;;;;;5045483;28;20159;-85
2022/08/31 10:51:10;;;;;;;0.25;0.25;;;;;;;;;;5022385;28;20213;-86
2022/08/31 10:53:49;;;;;;;0.30;0.30;;;20.90;81.70;;;;;;5036984;28;20245;-86
2022/08/31 10:56:57;;;;;;;0.20;0.20;;;20.80;99.40;;;;;;5042976;28;20172;-86
2022/08/31 10:59:33;;;;;;;1.00;0.47;;;21.20;83.50;;;;;;5041802;28;20295;-86
2022/08/31 11:02:23;;;;;;;1.00;0.40;;;21.20;99.00;;;;;;5046278;28;20164;-85
2022/08/31 11:05:24;;;;;;;0.40;0.40;;;21.30;99.60;;;;;;5028049;28;20180;-85
2022/08/31 11:07:50;;;;;;;0.40;0.40;;;;;;;;;;5020458;28;20172;-84
2022/08/31 11:10:18;;;;;;;0.38;0.38;;;;;;;;;;4998328;28;20291;-84
2022/08/31 11:12:51;;;;;;;0.38;0.38;;;21.60;85.40;;;;;;5025545;28;20181;-85
2022/08/31 11:15:36;;;;;;;0.80;0.50;;;21.50;99.60;;;;;;5018033;28;20182;-85
2022/08/31 11:18:20;;;;;;;0.40;0.40;;;21.10;99.50;;;;;;5021658;28;20185;-83
2022/08/31 11:20:46;;;;;;;0.35;0.30;;;;;;;;;;5021809;28;20227;-84
2022/08/31 11:23:47;;;;;;;0.98;0.63;;;21.00;99.50;;;;;;5021411;28;20197;-84
2022/08/31 11:26:25;;;;;;;0.30;0.30;;;20.80;99.90;;;;;;5024286;28;20192;-85
2022/08/31 11:29:08;;;;;;;0.20;0.20;;;20.90;99.90;;;;;;5020642;28;20208;-83
2022/08/31 11:31:37;;;;;;;1.42;0.70;;;20.40;85.50;;;;;;5021040;28;20172;-84
2022/08/31 11:34:40;;;;;;;0.65;0.55;;;20.00;99.90;;;;;;5020020;28;20263;-82
2022/08/31 11:37:07;;;;;;;0.50;0.50;;;;;;;;;;5017190;28;20180;-84
2022/08/31 11:39:43;;;;;;;0.70;0.70;;;20.40;82.70;;;;;;5017444;28;20208;-84
2022/08/31 11:42:17;;;;;;;0.77;0.43;;;20.70;82.20;;;;;;5003912;28;20645;-84
2022/08/31 11:44:45;;;;;;;0.32;0.32;;;20.70;82.30;;;;;;5000234;28;20628;-84
2022/08/31 11:47:33;;;;;;;0.85;0.52;;;21.30;90.00;;;;;;5022791;28;20228;-84
2022/08/31 11:50:04;;;;;;;1.40;0.65;;;21.10;83.50;;;;;;5021967;28;20177;-85
2022/08/31 11:52:37;;;;;;;3.90;2.15;;;21.00;84.40;;;;;;5020134;28;20287;-85
2022/08/31 11:55:45;;;;;;;0.73;0.40;;;20.80;82.40;;;;;;5023442;28;20726;-86
2022/08/31 11:58:32;;;;;;;0.70;0.68;;;20.90;99.90;;;;;;5013239;28;20189;-85
2022/08/31 12:01:02;;;;;;;0.68;0.40;;;20.40;99.90;;;;;;5019536;28;20272;-86
2022/08/31 12:03:43;;;;;;;0.88;0.63;;;20.70;99.90;;;;;;5023634;28;20697;-86
2022/08/31 12:06:31;;;;;;;0.30;0.30;;;20.40;99.90;;;;;;5022152;28;20187;-86
2022/08/31 12:09:33;;;;;;;0.40;0.40;;;20.20;88.90;;;;;;5023139;28;20179;-86
2022/08/31 12:12:34;;;;;;;0.30;0.30;;;20.40;84.70;;;;;;5026414;28;20180;-85
2022/08/31 12:15:18;;;;;;;0.40;0.40;;;20.80;99.90;;;;;;5011212;28;20241;-85
2022/08/31 12:18:12;;;;;;;0.47;0.45;;;20.40;98.40;;;;;;5020174;28;20185;-85
2022/08/31 12:24:14;;;;;;;0.82;0.38;;;21.20;79.20;;;;;;5027467;28;20220;-87
2022/08/31 12:26:48;;;;;;;0.73;0.50;;;20.90;97.60;;;;;;5028905;28;20313;-87
2022/08/31 12:29:33;;;;;;;0.40;0.40;;;21.50;78.20;;;;;;5010397;28;20308;-85
2022/08/31 12:32:34;;;;;;;0.40;0.40;;;21.50;97.30;;;;;;5003511;28;20518;-86
2022/08/31 12:35:06;;;;;;;0.38;0.30;;;21.50;93.00;;;;;;5010460;28;20196;-86
2022/08/31 12:37:37;;;;;;;0.20;0.20;;;20.90;67.30;;;;;;5000434;28;20173;-86
2022/08/31 12:40:06;;;;;;;0.10;0.10;;;20.50;93.70;;;;;;5018204;28;20272;-85
2022/08/31 12:42:35;;;;;;;0.30;0.30;;;20.40;72.10;;;;;;5003996;28;20180;-88
2022/08/31 12:45:02;;;;;;;0.20;0.20;;;20.40;73.70;;;;;;5028364;28;20192;-86
2022/08/31 12:47:42;;;;;;;1.30;0.70;;;20.70;74.70;;;;;;4997582;28;20202;-86
2022/08/31 12:50:11;;;;;;;0.45;0.35;;;20.70;96.10;;;;;;4997628;28;20177;-86
2022/08/31 12:52:45;;;;;;;0.30;0.30;;;21.50;75.40;;;;;;4998265;28;20257;-87
2022/08/31 12:55:36;;;;;;;0.55;0.30;;;21.90;77.30;;;;;;4998271;28;20176;-87
2022/08/31 12:58:45;;;;;;;0.63;0.60;;;22.90;96.20;;;;;;4998933;28;20547;-88
2022/08/31 13:01:16;;;;;;;0.57;0.57;;;22.20;74.60;;;;;;5004311;28;20250;-87
2022/08/31 13:03:47;;;;;;;0.43;0.43;;;21.80;74.90;;;;;;5012060;28;20205;-87
2022/08/31 13:06:21;;;;;;;0.20;0.20;;;21.30;76.10;;;;;;5008165;28;20177;-87
2022/08/31 13:08:54;;;;;;;0.55;0.40;;;21.00;76.40;;;;;;5009852;28;20180;-86
2022/08/31 13:11:41;;;;;;;0.52;0.40;;;20.60;97.00;;;;;;5007480;28;20178;-86
2022/08/31 13:14:18;;;;;;;0.10;0.10;;;20.80;77.80;;;;;;5004722;28;20182;-86
2022/08/31 13:16:50;;;;;;;0.60;0.30;;;20.80;76.70;;;;;;5005061;28;20186;-86
2022/08/31 13:19:24;;;;;;;0.90;0.45;;;20.70;76.10;;;;;;5004704;28;20198;-86
2022/08/31 13:22:04;;;;;;;0.30;0.30;;;21.00;76.00;;;;;;5003156;28;20170;-86
2022/08/31 13:24:32;;;;;;;0.88;0.63;;;21.50;73.80;;;;;;5006035;28;20223;-86
2022/08/31 13:27:15;;;;;;;0.63;0.40;;;21.90;94.00;;;;;;5010214;28;20174;-86
2022/08/31 13:29:43;;;;;;;0.20;0.20;;;;;;;;;;5018741;28;20232;-87
2022/08/31 13:32:31;;;;;;;0.20;0.20;;;22.60;70.00;;;;;;5030815;28;20188;-84
2022/08/31 13:35:02;;;;;;;0.30;0.30;;;22.70;64.70;;;;;;5026196;28;20211;-84
2022/08/31 13:37:32;;;;;;;3.10;0.38;;;22.80;66.10;;;;;;5018527;28;20181;-84
2022/08/31 13:40:11;;;;;;;0.38;0.30;;;22.90;63.20;;;;;;5017705;28;20176;-84
2022/08/31 13:42:41;;;;;;;0.30;0.30;;;23.10;63.70;;;;;;5035022;28;20172;-84
2022/08/31 13:45:37;;;;;;;0.60;0.35;;;23.20;90.30;;;;;;5034332;28;20181;-86
2022/08/31 13:48:09;;;;;;;0.30;0.20;;;23.00;62.50;;;;;;5030435;28;20200;-83
2022/08/31 13:50:49;;;;;;;0.22;0.22;;;22.60;63.30;;;;;;5033074;28;20178;-87
2022/08/31 13:53:44;;;;;;;0.45;0.40;;;22.40;63.90;;;;;;5017180;28;20181;-85